Time;durP1;ratioP1;P1;durP2;ratioP2;P2;SDS_P1;SDS_P2;PMS_P1;PMS_P2;Temp;Humidity;BMP_temperature;BMP_pressure;BME280_temperature;BME280_humidity;BME280_pressure;Samples;Min_cycle;Max_cycle;Signal;HPM_P1;HPM_P2
2024/02/09 00:00:40;;;;;;;15.90;10.70;;;;;;;-0.86;81.25;98403.77;107511;1253;72562;-40
2024/02/09 00:03:10;;;;;;;;;;;;;;;-0.83;81.47;98408.14;107571;1255;67068;-40
2024/02/09 00:05:38;;;;;;;;;;;;;;;-0.80;81.57;98404.29;107599;1253;71415;-40
2024/02/09 00:08:06;;;;;;;16.80;11.40;;;;;;;-0.84;81.65;98400.52;106842;1254;1003800;-40
2024/02/09 00:10:36;;;;;;;17.00;10.80;;;;;;;-0.88;81.83;98403.46;107618;1254;60418;-40
2024/02/09 00:13:05;;;;;;;18.00;11.10;;;;;;;-0.86;82.12;98406.00;107581;1253;73809;-40
2024/02/09 00:15:33;;;;;;;15.70;10.50;;;;;;;-0.79;81.81;98404.48;107612;1256;68331;-40
2024/02/09 00:18:04;;;;;;;16.70;11.10;;;;;;;-0.79;82.03;98406.62;107593;1255;72678;-40
2024/02/09 00:20:32;;;;;;;19.70;11.80;;;;;;;-0.80;82.54;98404.17;107641;1254;60509;-40
2024/02/09 00:23:00;;;;;;;16.40;11.00;;;;;;;-0.79;82.25;98399.20;107577;1254;60280;-40
2024/02/09 00:25:29;;;;;;;15.20;10.10;;;;;;;-0.73;81.96;98398.77;107628;1256;71600;-40
2024/02/09 00:27:59;;;;;;;17.80;10.50;;;;;;;-0.67;82.04;98393.28;107652;1254;68329;-40
2024/02/09 00:30:27;;;;;;;17.20;11.80;;;;;;;-0.66;82.18;98390.42;107664;1254;72640;-40
2024/02/09 00:32:58;;;;;;;18.60;11.30;;;;;;;-0.69;82.25;98383.39;107654;1254;60447;-40
2024/02/09 00:35:27;;;;;;;17.70;10.40;;;;;;;-0.69;82.20;98377.21;107577;1254;60651;-40
2024/02/09 00:38:02;;;;;;;14.50;10.70;;;;;;;-0.65;81.73;98373.41;107584;1254;73841;-39
2024/02/09 00:40:31;;;;;;;15.70;11.60;;;;;;;-0.64;81.90;98376.20;107610;1254;68329;-40
2024/02/09 00:43:02;;;;;;;15.80;11.50;;;;;;;-0.65;82.10;98377.10;107666;1253;72487;-40
2024/02/09 00:45:33;;;;;;;16.30;11.00;;;;;;;-0.67;82.22;98373.27;107657;1254;60356;-40
2024/02/09 00:48:03;;;;;;;16.10;10.80;;;;;;;-0.65;82.16;98368.21;107650;1254;60450;-40
2024/02/09 00:50:30;;;;;;;16.10;10.70;;;;;;;-0.63;82.18;98364.48;107645;1255;72611;-40
2024/02/09 00:53:04;;;;;;;15.20;10.70;;;;;;;-0.65;82.44;98359.10;107634;1254;68695;-40
2024/02/09 00:55:32;;;;;;;17.00;11.10;;;;;;;-0.65;82.76;98354.21;107626;1254;71788;-40
2024/02/09 00:58:01;;;;;;;15.80;11.00;;;;;;;-0.59;82.55;98343.64;107725;1253;60318;-40
2024/02/09 01:00:30;;;;;;;15.00;11.30;;;;;;;-0.55;82.24;98338.79;107687;1254;60353;-40
2024/02/09 01:03:00;;;;;;;18.00;11.60;;;;;;;-0.59;82.34;98337.79;107611;1255;72589;-39
2024/02/09 01:05:28;;;;;;;15.10;10.70;;;;;;;-0.63;82.57;98335.84;107684;1254;68259;-39
2024/02/09 01:07:57;;;;;;;16.40;10.50;;;;;;;-0.62;82.40;98328.34;107586;1258;71184;-39
2024/02/09 01:10:24;;;;;;;15.90;11.00;;;;;;;-0.56;82.43;98319.49;107590;1254;60472;-39
2024/02/09 02:46:47;;;;;;;10.10;8.00;;;;;;;-0.69;83.86;98229.20;107571;1254;60798;-40
2024/02/09 03:05:53;;;;;;;9.00;6.60;;;;;;;-0.73;84.06;98212.44;107610;1254;72982;-39
2024/02/09 03:08:20;;;;;;;9.50;6.90;;;;;;;-0.72;84.12;98214.30;107561;1254;67403;-38
2024/02/09 03:10:51;;;;;;;10.10;7.40;;;;;;;-0.74;84.38;98208.99;107551;1257;72796;-39
2024/02/09 03:13:21;;;;;;;8.90;6.40;;;;;;;-0.73;84.56;98206.90;107617;1254;59790;-39
2024/02/09 03:15:52;;;;;;;8.00;6.20;;;;;;;-0.66;84.25;98204.67;107649;1255;59311;-39
2024/02/09 03:18:24;;;;;;;8.10;6.70;;;;;;;-0.64;83.97;98201.05;107622;1257;73904;-39
2024/02/09 03:20:58;;;;;;;9.00;7.20;;;;;;;-0.69;84.21;98196.57;107616;1257;68349;-39
2024/02/09 03:23:26;;;;;;;9.30;6.80;;;;;;;-0.72;84.22;98199.23;107574;1257;72473;-39
2024/02/09 03:25:54;;;;;;;8.70;6.70;;;;;;;-0.69;84.16;98197.16;107601;1254;59611;-38
2024/02/09 03:28:22;;;;;;;8.30;6.30;;;;;;;-0.68;84.18;98190.02;107606;1254;60417;-39
2024/02/09 03:30:49;;;;;;;9.30;6.70;;;;;;;-0.71;84.26;98185.45;107605;1256;73768;-39
2024/02/09 03:33:17;;;;;;;8.70;6.20;;;;;;;-0.76;84.09;98177.45;107597;1254;68560;-39
2024/02/09 03:35:44;;;;;;;7.20;5.70;;;;;;;-0.75;84.10;98177.05;107586;1254;71405;-39
2024/02/09 03:38:13;;;;;;;8.10;6.40;;;;;;;-0.74;84.09;98176.73;107522;1254;61012;-40
2024/02/09 03:40:42;;;;;;;9.50;7.10;;;;;;;-0.78;84.33;98172.27;107544;1255;60370;-39
2024/02/09 03:43:10;;;;;;;7.90;6.30;;;;;;;-0.82;84.61;98165.48;107560;1256;72677;-39
2024/02/09 03:45:41;;;;;;;7.50;6.20;;;;;;;-0.79;84.48;98166.16;107576;1254;67419;-39
2024/02/09 03:48:09;;;;;;;7.30;5.90;;;;;;;-0.74;84.43;98158.47;107609;1255;72458;-39
2024/02/09 03:50:37;;;;;;;8.30;6.00;;;;;;;-0.76;84.55;98158.34;107649;1257;60379;-39
2024/02/09 03:53:04;;;;;;;8.00;5.90;;;;;;;-0.83;84.63;98149.04;107623;1257;60334;-39
2024/02/09 03:55:35;;;;;;;7.60;5.30;;;;;;;-0.76;84.53;98160.21;107593;1255;73120;-39
2024/02/09 03:58:03;;;;;;;6.60;5.30;;;;;;;-0.72;84.50;98159.30;107543;1254;68544;-39
2024/02/09 04:00:31;;;;;;;8.40;6.20;;;;;;;-0.75;84.48;98159.38;107545;1254;71943;-38
2024/02/09 04:02:58;;;;;;;6.80;5.50;;;;;;;-0.79;84.39;98160.72;107546;1257;60529;-38
2024/02/09 04:05:26;;;;;;;5.50;4.70;;;;;;;-0.78;84.24;98164.63;107537;1254;60042;-39
2024/02/09 04:07:59;;;;;;;6.40;5.10;;;;;;;-0.72;84.26;98162.30;107557;1257;73847;-39
2024/02/09 04:10:26;;;;;;;6.00;4.90;;;;;;;-0.73;84.26;98162.46;107618;1257;68331;-39
2024/02/09 04:13:12;;;;;;;6.80;4.90;;;;;;;-0.76;84.36;98165.47;107624;1254;71384;-39
2024/02/09 04:15:41;;;;;;;6.90;4.70;;;;;;;-0.75;84.48;98159.55;107608;1257;60431;-39
2024/02/09 04:18:09;;;;;;;6.60;4.60;;;;;;;-0.71;84.15;98160.99;107608;1254;60392;-39
2024/02/09 04:20:37;;;;;;;5.30;4.10;;;;;;;-0.75;84.27;98163.98;107614;1254;73857;-39
2024/02/09 04:23:07;;;;;;;7.40;5.10;;;;;;;-0.77;84.35;98157.14;107643;1254;67102;-39
2024/02/09 04:25:36;;;;;;;;;;;;;;;-0.76;84.42;98156.05;107608;1254;72432;-38
2024/02/09 04:28:04;;;;;;;6.20;4.40;;;;;;;-0.74;84.25;98152.16;107649;1254;60334;-38
2024/02/09 04:30:32;;;;;;;8.60;4.60;;;;;;;-0.79;84.47;98151.89;107546;1254;60280;-39
2024/02/09 04:33:00;;;;;;;7.00;4.80;;;;;;;-0.83;84.50;98154.66;107509;1254;73956;-39
2024/02/09 04:35:27;;;;;;;5.60;4.10;;;;;;;-0.83;84.35;98151.23;107512;1257;68378;-39
2024/02/09 04:37:55;;;;;;;6.60;4.60;;;;;;;-0.82;84.30;98148.58;107525;1257;72866;-39
2024/02/09 04:40:22;;;;;;;6.50;5.00;;;;;;;-0.84;84.35;98152.11;107496;1254;60373;-39
2024/02/09 04:42:50;;;;;;;6.00;4.30;;;;;;;-0.89;84.65;98149.08;107594;1253;60408;-39
2024/02/09 04:45:18;;;;;;;6.00;4.50;;;;;;;-0.89;84.65;98146.95;107595;1257;73694;-40
2024/02/09 04:47:45;;;;;;;6.70;4.30;;;;;;;-0.87;84.62;98151.67;107542;1254;68680;-39
2024/02/09 04:50:13;;;;;;;7.10;5.20;;;;;;;-0.89;85.08;98149.17;107536;1256;72693;-39
2024/02/09 04:52:40;;;;;;;6.80;4.80;;;;;;;-0.90;85.10;98148.20;107579;1254;60884;-40
2024/02/09 04:55:10;;;;;;;8.50;5.20;;;;;;;-0.86;84.86;98139.84;107601;1254;60292;-40
2024/02/09 04:57:38;;;;;;;6.20;4.80;;;;;;;-0.84;84.89;98140.04;107637;1257;72654;-40
2024/02/09 05:00:07;;;;;;;7.70;5.30;;;;;;;-0.86;85.15;98135.93;107572;1257;68720;-40
2024/02/09 05:02:34;;;;;;;7.10;5.10;;;;;;;-0.88;84.92;98132.78;107578;1253;72704;-39
2024/02/09 05:05:02;;;;;;;7.00;5.20;;;;;;;-0.85;84.91;98137.86;107604;1254;60851;-40
2024/02/09 05:07:30;;;;;;;6.90;4.90;;;;;;;-0.84;84.57;98137.28;107646;1254;60296;-40
2024/02/09 05:09:57;;;;;;;6.80;5.50;;;;;;;-0.90;84.80;98137.06;107655;1257;72628;-40
2024/02/09 05:12:25;;;;;;;7.60;5.00;;;;;;;-0.94;84.78;98138.06;107594;1254;67085;-39
2024/02/09 05:14:54;;;;;;;7.00;4.80;;;;;;;-0.95;84.40;98137.59;107629;1254;72508;-40
2024/02/09 05:17:22;;;;;;;8.00;5.60;;;;;;;-0.96;84.50;98137.06;107658;1254;60310;-39
2024/02/09 05:19:57;;;;;;;6.80;5.30;;;;;;;-1.01;84.62;98132.84;107618;1254;59864;-39
2024/02/09 05:22:27;;;;;;;6.40;5.00;;;;;;;-1.03;84.52;98136.91;107599;1254;72565;-40
2024/02/09 05:24:56;;;;;;;6.70;5.20;;;;;;;-0.99;84.57;98132.52;107555;1254;68401;-39
2024/02/09 05:27:24;;;;;;;8.00;5.60;;;;;;;-1.00;84.47;98129.90;107525;1254;72656;-40
2024/02/09 05:29:52;;;;;;;8.60;5.50;;;;;;;-1.06;84.78;98122.57;107538;1254;59560;-40
2024/02/09 05:32:21;;;;;;;8.00;5.20;;;;;;;-1.08;84.79;98122.34;107535;1254;60351;-39
2024/02/09 05:34:48;;;;;;;7.00;6.00;;;;;;;-1.05;84.64;98127.95;107602;1253;72888;-40
2024/02/09 05:37:17;;;;;;;8.30;6.30;;;;;;;-1.08;84.80;98132.34;107550;1254;68313;-40
2024/02/09 05:39:45;;;;;;;8.70;6.50;;;;;;;-1.13;85.00;98128.40;107590;1254;72970;-40
2024/02/09 05:42:13;;;;;;;8.20;5.90;;;;;;;-1.08;84.89;98132.37;107585;1254;60431;-39
2024/02/09 05:44:40;;;;;;;8.70;6.10;;;;;;;-1.03;84.75;98136.44;107591;1253;60492;-40
2024/02/09 05:47:08;;;;;;;8.30;6.20;;;;;;;-1.05;85.02;98140.25;107596;1254;73911;-39
2024/02/09 05:49:37;;;;;;;8.90;6.30;;;;;;;-1.07;84.79;98141.83;107622;1253;67557;-39
2024/02/09 05:52:07;;;;;;;8.90;7.40;;;;;;;-1.05;84.62;98140.10;107586;1254;71363;-40
2024/02/09 05:54:35;;;;;;;9.80;7.40;;;;;;;-1.02;84.77;98141.01;107619;1254;60437;-40
2024/02/09 05:57:03;;;;;;;11.40;8.40;;;;;;;-1.02;84.81;98146.02;107624;1252;60488;-39
2024/02/09 05:59:30;;;;;;;11.00;7.90;;;;;;;-1.03;84.78;98148.46;107693;1254;73921;-40
2024/02/09 06:01:58;;;;;;;12.50;8.60;;;;;;;-0.96;84.72;98150.68;107536;1254;67135;-40
2024/02/09 06:04:26;;;;;;;11.00;8.80;;;;;;;-0.93;84.18;98148.02;107544;1254;72458;-40
2024/02/09 06:06:54;;;;;;;10.80;9.20;;;;;;;-0.98;84.25;98149.25;107566;1257;60433;-40
2024/02/09 06:09:22;;;;;;;12.00;8.50;;;;;;;-1.01;84.53;98146.73;107594;1253;59265;-40
2024/02/09 06:11:50;;;;;;;9.90;7.70;;;;;;;-0.98;84.34;98145.73;107620;1257;72585;-40
2024/02/09 06:14:17;;;;;;;10.80;8.90;;;;;;;-0.94;83.76;98146.73;107578;1254;66928;-40
2024/02/09 06:16:47;;;;;;;11.10;8.80;;;;;;;-0.95;83.72;98150.93;107561;1254;72633;-40
2024/02/09 06:19:14;;;;;;;11.40;8.70;;;;;;;-1.00;83.76;98148.82;107598;1254;61047;-41
2024/02/09 06:21:42;;;;;;;10.20;8.10;;;;;;;-0.99;83.62;98147.27;107587;1254;60344;-41
2024/02/09 06:24:09;;;;;;;11.00;9.00;;;;;;;-0.92;83.60;98150.87;107539;1253;72557;-41
2024/02/09 06:26:37;;;;;;;11.30;9.10;;;;;;;-0.92;83.44;98152.45;107563;1257;68672;-41
2024/02/09 06:29:04;;;;;;;10.20;8.70;;;;;;;-0.94;83.64;98161.69;107606;1253;72269;-39
2024/02/09 06:31:33;;;;;;;12.40;8.20;;;;;;;-0.96;83.41;98158.37;107567;1254;60533;-40
2024/02/09 06:34:01;;;;;;;10.70;8.40;;;;;;;-0.89;83.40;98157.09;107639;1257;60030;-39
2024/02/09 06:36:29;;;;;;;11.90;9.10;;;;;;;-0.86;83.31;98156.42;107597;1254;73789;-40
2024/02/09 06:38:57;;;;;;;13.70;9.00;;;;;;;-0.88;83.00;98156.96;107637;1254;67103;-39
2024/02/09 06:41:25;;;;;;;11.70;8.40;;;;;;;-0.91;82.83;98152.11;107574;1254;71453;-40
2024/02/09 06:43:52;;;;;;;10.40;7.90;;;;;;;-0.85;82.70;98151.67;107530;1254;60947;-40
2024/02/09 06:46:20;;;;;;;13.60;8.50;;;;;;;-0.81;82.72;98144.40;107554;1254;60405;-40
2024/02/09 06:48:48;;;;;;;15.40;9.60;;;;;;;-0.82;82.75;98146.16;107529;1254;74253;-39
2024/02/09 06:51:20;;;;;;;11.60;8.70;;;;;;;-0.87;82.55;98146.98;107543;1254;68341;-40
2024/02/09 06:53:49;;;;;;;11.30;8.10;;;;;;;-0.84;82.30;98153.08;107501;1257;72448;-40
2024/02/09 06:56:16;;;;;;;11.40;8.60;;;;;;;-0.80;82.08;98158.27;107540;1254;60271;-39
2024/02/09 06:58:45;;;;;;;12.40;8.60;;;;;;;-0.84;81.82;98165.04;107538;1254;60488;-39
2024/02/09 07:01:14;;;;;;;12.10;8.80;;;;;;;-0.88;81.98;98164.79;107569;1252;73816;-40
2024/02/09 07:03:42;;;;;;;11.30;8.90;;;;;;;-0.83;82.24;98161.91;107579;1254;68343;-40
2024/02/09 07:06:10;;;;;;;10.80;8.00;;;;;;;-0.76;81.66;98159.14;107571;1254;73115;-39
2024/02/09 07:08:40;;;;;;;15.20;8.80;;;;;;;-0.79;81.46;98159.88;107614;1253;60412;-39
2024/02/09 07:11:11;;;;;;;14.50;9.90;;;;;;;-0.80;81.92;98162.79;107559;1254;60257;-40
2024/02/09 07:13:41;;;;;;;12.00;8.80;;;;;;;-0.74;81.83;98157.86;107589;1252;73755;-39
2024/02/09 07:16:10;;;;;;;13.00;8.60;;;;;;;-0.69;81.13;98162.51;106122;1254;1003506;-40
2024/02/09 07:18:40;;;;;;;17.20;11.00;;;;;;;-0.73;80.98;98155.86;107617;1254;72620;-40
2024/02/09 07:21:09;;;;;;;13.90;9.50;;;;;;;-0.77;81.21;98150.66;107681;1253;59416;-39
2024/02/09 07:23:37;;;;;;;12.60;9.00;;;;;;;-0.74;80.94;98143.80;107616;1254;60590;-40
2024/02/09 07:26:07;;;;;;;12.30;9.30;;;;;;;-0.71;80.97;98141.83;107521;1252;73890;-39
2024/02/09 07:28:40;;;;;;;11.30;8.20;;;;;;;-0.70;80.97;98135.98;107492;1252;68650;-39
2024/02/09 07:31:09;;;;;;;11.80;6.50;;;;;;;-0.71;80.76;98127.11;107531;1253;72649;-39
2024/02/09 07:33:37;;;;;;;8.20;6.20;;;;;;;-0.67;80.54;98124.42;107545;1254;60510;-39
2024/02/09 07:36:06;;;;;;;8.20;6.50;;;;;;;-0.63;80.51;98127.16;107532;1253;60379;-40
2024/02/09 07:38:35;;;;;;;8.50;5.90;;;;;;;-0.70;80.58;98118.42;107706;1253;73846;-40
2024/02/09 07:41:03;;;;;;;9.20;5.80;;;;;;;-0.66;80.36;98122.56;107586;1252;68359;-39
2024/02/09 07:43:31;;;;;;;9.20;5.40;;;;;;;-0.61;80.12;98127.26;107478;1254;160938;-39
2024/02/09 07:47:12;;;;;;;9.30;6.40;;;;;;;-0.60;80.12;98128.69;104333;1294;600936;-40
2024/02/09 07:49:40;;;;;;;8.70;5.70;;;;;;;-0.62;79.97;98126.63;106643;1267;60888;-40
2024/02/09 07:52:07;;;;;;;7.00;5.50;;;;;;;-0.57;79.93;98125.48;106696;1265;59330;-40
2024/02/09 07:54:36;;;;;;;7.90;5.60;;;;;;;-0.53;79.45;98130.40;106766;1267;71091;-40
2024/02/09 07:57:06;;;;;;;11.30;5.80;;;;;;;-0.55;79.62;98128.19;106707;1267;68407;-40
2024/02/09 07:59:33;;;;;;;;;;;;;;;-0.57;79.70;98134.42;106692;1267;72689;-40
2024/02/09 08:02:01;;;;;;;8.20;5.80;;;;;;;-0.51;79.55;98136.20;106676;1266;166850;-40
2024/02/09 08:04:30;;;;;;;8.90;5.70;;;;;;;-0.49;79.50;98140.39;106788;1262;59250;-40
2024/02/09 08:06:58;;;;;;;;;;;;;;;-0.48;79.90;98137.78;106833;1262;72323;-40
2024/02/09 08:09:26;;;;;;;8.40;5.70;;;;;;;-0.43;79.97;98136.30;106733;1263;67589;-40
2024/02/09 08:11:54;;;;;;;9.80;5.80;;;;;;;-0.33;79.40;98142.58;106730;1264;72667;-40
2024/02/09 08:14:22;;;;;;;8.90;6.30;;;;;;;-0.31;79.06;98143.42;106736;1269;59716;-40
2024/02/09 08:16:49;;;;;;;9.40;6.40;;;;;;;-0.33;79.01;98144.11;106798;1269;59896;-40
2024/02/09 08:19:17;;;;;;;9.10;5.90;;;;;;;-0.35;78.88;98147.45;106803;1262;73265;-40
2024/02/09 08:21:45;;;;;;;9.10;6.00;;;;;;;-0.28;78.62;98146.89;106763;1264;68684;-40
2024/02/09 08:24:14;;;;;;;9.90;6.70;;;;;;;-0.26;78.91;98148.48;106754;1268;72763;-39
2024/02/09 08:26:42;;;;;;;10.50;7.30;;;;;;;-0.27;78.97;98149.57;106741;1266;60005;-40
2024/02/09 08:29:21;;;;;;;10.50;6.80;;;;;;;-0.29;78.68;98143.56;106724;1264;60001;-39
2024/02/09 08:31:48;;;;;;;10.70;6.60;;;;;;;-0.31;78.32;98138.85;106775;1263;73129;-40
2024/02/09 08:34:16;;;;;;;11.30;7.30;;;;;;;-0.26;78.52;98147.95;106795;1264;68590;-40
2024/02/09 08:36:44;;;;;;;11.40;7.50;;;;;;;-0.30;78.46;98145.05;106801;1264;72480;-39
2024/02/09 08:39:12;;;;;;;8.60;6.50;;;;;;;-0.30;78.67;98147.40;106779;1266;61364;-40
2024/02/09 08:41:39;;;;;;;9.10;6.60;;;;;;;-0.25;78.41;98147.39;106811;1264;59195;-40
2024/02/09 08:44:07;;;;;;;9.90;6.70;;;;;;;-0.26;78.22;98150.61;107025;1259;73171;-40
2024/02/09 08:46:35;;;;;;;11.50;7.10;;;;;;;-0.29;78.36;98145.92;107011;1260;68834;-39
2024/02/09 08:49:03;;;;;;;9.90;7.00;;;;;;;-0.29;78.47;98163.11;107004;1260;72807;-40
2024/02/09 08:51:31;;;;;;;11.10;7.30;;;;;;;-0.24;78.30;98162.79;106998;1264;59631;-39
2024/02/09 08:54:01;;;;;;;9.90;7.50;;;;;;;-0.25;78.14;98165.80;107008;1260;61523;-40
2024/02/09 08:56:29;;;;;;;13.20;8.00;;;;;;;-0.32;77.93;98164.14;106961;1263;73191;-40
2024/02/09 08:58:57;;;;;;;8.90;6.60;;;;;;;-0.37;78.34;98168.70;106963;1260;68357;-40
2024/02/09 09:01:24;;;;;;;8.90;7.20;;;;;;;-0.32;78.26;98171.74;106957;1265;72670;-40
2024/02/09 09:03:54;;;;;;;9.40;6.70;;;;;;;-0.33;78.10;98171.19;106884;1260;59805;-40
2024/02/09 09:06:23;;;;;;;;;;;;;;;-0.36;78.32;98183.46;106871;1266;60982;-40
2024/02/09 09:08:52;;;;;;;9.60;6.40;;;;;;;-0.38;78.47;98185.95;106882;1260;73472;-40
2024/02/09 09:11:20;;;;;;;9.70;6.70;;;;;;;-0.30;78.56;98182.55;106883;1260;69944;-40
2024/02/09 09:13:47;;;;;;;10.70;6.80;;;;;;;-0.28;78.46;98187.92;106935;1261;71391;-40
2024/02/09 09:16:18;;;;;;;10.70;7.70;;;;;;;-0.27;78.59;98189.21;106928;1260;59680;-40
2024/02/09 09:18:45;;;;;;;10.40;7.80;;;;;;;-0.26;78.64;98185.58;106935;1259;59122;-40
2024/02/09 09:21:13;;;;;;;9.90;7.20;;;;;;;-0.16;78.09;98183.70;106185;1265;1003018;-39
2024/02/09 09:23:41;;;;;;;11.50;7.40;;;;;;;-0.11;77.93;98187.77;106939;1260;69699;-40
2024/02/09 09:26:08;;;;;;;11.50;8.10;;;;;;;-0.13;78.04;98182.15;106961;1263;71562;-40
2024/02/09 09:28:51;;;;;;;10.60;7.50;;;;;;;-0.17;77.76;98181.29;106969;1260;59683;-39
2024/02/09 09:31:19;;;;;;;10.50;7.10;;;;;;;-0.13;77.79;98181.75;106885;1260;60141;-40
2024/02/09 09:33:48;;;;;;;10.10;8.10;;;;;;;-0.07;77.89;98182.64;106987;1260;73177;-40
2024/02/09 09:36:16;;;;;;;13.90;8.90;;;;;;;-0.03;77.88;98181.94;106987;1260;68886;-39
2024/02/09 09:38:44;;;;;;;11.70;8.80;;;;;;;-0.01;77.78;98179.93;106962;1263;70470;-40
2024/02/09 09:41:12;;;;;;;10.40;7.30;;;;;;;0.03;77.25;98179.38;107007;1260;60171;-39
2024/02/09 09:43:40;;;;;;;12.20;8.50;;;;;;;0.06;76.86;98181.72;106997;1260;60146;-40
2024/02/09 09:46:08;;;;;;;12.20;7.90;;;;;;;0.05;76.79;98182.19;106969;1260;73295;-40
2024/02/09 09:48:37;;;;;;;9.70;7.60;;;;;;;-0.01;76.68;98181.59;107059;1260;66701;-40
2024/02/09 09:51:05;;;;;;;9.50;6.80;;;;;;;0.00;76.92;98183.53;106888;1266;71794;-40
2024/02/09 09:53:39;;;;;;;11.70;8.20;;;;;;;0.08;76.89;98182.02;106984;1260;59523;-40
2024/02/09 09:56:07;;;;;;;11.00;8.10;;;;;;;0.12;76.74;98179.25;107319;1257;60109;-39
2024/02/09 09:58:35;;;;;;;12.20;8.80;;;;;;;0.10;76.61;98181.55;107264;1255;73022;-40
2024/02/09 10:01:09;;;;;;;10.00;7.80;;;;;;;0.06;76.21;98181.54;107261;1257;69129;-39
2024/02/09 10:03:39;;;;;;;11.10;8.30;;;;;;;0.07;75.97;98183.81;107236;1261;72744;-39
2024/02/09 10:06:06;;;;;;;11.50;8.50;;;;;;;0.05;76.31;98181.98;107145;1260;59663;-40
2024/02/09 10:08:38;;;;;;;11.70;7.70;;;;;;;-0.02;76.13;98182.16;107105;1257;60155;-40
2024/02/09 10:11:06;;;;;;;9.60;7.40;;;;;;;-0.08;76.44;98183.11;107114;1257;73102;-39
2024/02/09 10:13:37;;;;;;;10.00;7.40;;;;;;;-0.08;76.53;98182.90;107126;1258;67600;-40
2024/02/09 10:16:05;;;;;;;10.50;7.80;;;;;;;-0.07;76.73;98182.92;107133;1257;72622;-40
2024/02/09 10:18:34;;;;;;;10.20;8.10;;;;;;;-0.07;77.05;98183.84;107117;1257;59765;-39
2024/02/09 10:21:05;;;;;;;10.50;7.40;;;;;;;-0.09;76.72;98188.09;107126;1255;59727;-39
2024/02/09 10:23:34;;;;;;;9.40;7.50;;;;;;;-0.05;76.50;98191.67;107239;1257;71867;-40
2024/02/09 10:26:05;;;;;;;10.30;6.30;;;;;;;-0.03;76.27;98193.13;107224;1257;68827;-40
2024/02/09 10:28:33;;;;;;;11.30;8.40;;;;;;;-0.11;76.33;98195.63;107256;1257;72887;-39
2024/02/09 10:31:01;;;;;;;10.50;8.20;;;;;;;-0.16;76.62;98191.23;107263;1257;59247;-39
2024/02/09 10:33:30;;;;;;;10.40;7.40;;;;;;;-0.15;76.96;98193.39;107235;1257;59534;-40
2024/02/09 10:35:59;;;;;;;10.40;7.90;;;;;;;-0.12;76.87;98197.41;107266;1256;73162;-39
2024/02/09 10:38:27;;;;;;;;;;;;;;;-0.13;77.00;98204.15;107332;1255;68713;-39
2024/02/09 10:40:55;;;;;;;11.20;8.90;;;;;;;-0.15;77.26;98206.52;107316;1256;72727;-40
2024/02/09 10:43:27;;;;;;;12.30;8.00;;;;;;;-0.11;77.41;98196.81;107245;1256;60988;-40
2024/02/09 10:45:55;;;;;;;13.60;8.60;;;;;;;-0.02;77.16;98194.73;107111;1256;60153;-40
2024/02/09 10:48:25;;;;;;;;;;;;;;;-0.01;76.73;98192.76;104958;1257;1003716;-39
2024/02/09 10:50:54;;;;;;;14.70;8.80;;;;;;;-0.04;77.03;98192.79;107205;1257;68562;-39
2024/02/09 10:53:26;;;;;;;;;;;;;;;-0.06;77.27;98195.31;107171;1260;70653;-40
2024/02/09 10:56:05;;;;;;;10.60;8.30;;;;;;;0.01;77.18;98196.63;107171;1256;59717;-39
2024/02/09 10:58:33;;;;;;;14.40;9.40;;;;;;;0.07;76.74;98200.46;107208;1256;60313;-40
2024/02/09 11:01:04;;;;;;;11.90;8.70;;;;;;;0.05;76.53;98196.96;107281;1257;71183;-40
2024/02/09 11:03:32;;;;;;;12.60;9.00;;;;;;;0.02;76.23;98199.29;107203;1256;67847;-39
2024/02/09 11:06:02;;;;;;;11.10;8.60;;;;;;;-0.02;76.42;98193.52;107206;1256;72752;-40
2024/02/09 11:08:33;;;;;;;11.90;9.00;;;;;;;0.00;76.64;98191.90;107276;1257;59874;-40
2024/02/09 11:11:01;;;;;;;11.30;8.00;;;;;;;0.03;76.58;98190.70;107053;1257;59484;-40
2024/02/09 11:13:30;;;;;;;11.30;8.90;;;;;;;-0.01;76.69;98198.55;107163;1257;71454;-40
2024/02/09 11:15:59;;;;;;;14.30;8.80;;;;;;;-0.07;76.68;98198.98;107285;1258;67344;-40
2024/02/09 11:18:31;;;;;;;10.70;8.20;;;;;;;-0.08;76.97;98195.06;107214;1257;71561;-40
2024/02/09 11:21:04;;;;;;;14.30;9.10;;;;;;;-0.04;76.96;98188.29;107135;1257;59605;-40
2024/02/09 11:23:32;;;;;;;13.30;10.20;;;;;;;-0.02;77.54;98184.19;107127;1257;60319;-40
2024/02/09 11:26:00;;;;;;;15.40;11.10;;;;;;;0.02;77.72;98191.52;107148;1257;73128;-39
2024/02/09 11:28:27;;;;;;;15.10;11.10;;;;;;;0.09;77.58;98189.51;107144;1259;68612;-40
2024/02/09 11:30:56;;;;;;;17.30;11.60;;;;;;;0.15;77.11;98190.09;107258;1257;72745;-39
2024/02/09 11:33:23;;;;;;;18.30;12.70;;;;;;;0.15;77.10;98195.55;107260;1257;59691;-39
2024/02/09 11:35:51;;;;;;;17.00;12.00;;;;;;;0.11;77.17;98200.42;107235;1256;60620;-40
2024/02/09 11:38:20;;;;;;;15.20;10.80;;;;;;;0.07;77.60;98213.50;107251;1257;73173;-40
2024/02/09 11:40:51;;;;;;;14.70;9.20;;;;;;;0.12;77.48;98214.21;107181;1256;67287;-40
2024/02/09 11:43:19;;;;;;;16.20;9.10;;;;;;;0.14;77.15;98219.48;107202;1257;71900;-39
2024/02/09 11:45:47;;;;;;;12.90;9.10;;;;;;;0.13;77.48;98216.30;107223;1257;59529;-40
2024/02/09 11:48:23;;;;;;;14.10;9.60;;;;;;;0.11;77.57;98214.95;107168;1256;60179;-39
2024/02/09 11:50:53;;;;;;;16.60;8.90;;;;;;;0.12;77.51;98208.44;107126;1256;73112;-39
2024/02/09 11:53:21;;;;;;;13.20;9.00;;;;;;;0.18;77.52;98208.83;107061;1256;66880;-40
2024/02/09 11:55:48;;;;;;;17.00;9.70;;;;;;;0.19;77.67;98221.44;107157;1260;71603;-39
2024/02/09 11:58:16;;;;;;;15.10;10.30;;;;;;;0.18;77.45;98228.11;107161;1256;60526;-39
2024/02/09 12:00:45;;;;;;;16.60;8.90;;;;;;;0.13;77.13;98232.02;107180;1256;60078;-39
2024/02/09 12:03:13;;;;;;;12.90;9.30;;;;;;;0.14;77.15;98234.80;107081;1258;74826;-40
2024/02/09 12:05:45;;;;;;;14.40;9.40;;;;;;;0.14;77.52;98243.33;107060;1257;71043;-40
2024/02/09 12:08:19;;;;;;;13.30;9.00;;;;;;;0.13;77.53;98240.48;107120;1257;72785;-39
2024/02/09 12:10:50;;;;;;;13.60;9.80;;;;;;;0.10;77.05;98236.16;107165;1257;60410;-40
2024/02/09 12:13:19;;;;;;;12.60;9.00;;;;;;;0.10;76.86;98239.05;107239;1259;60175;-40
2024/02/09 12:15:47;;;;;;;12.10;9.40;;;;;;;0.10;77.07;98239.05;107184;1257;72636;-40
2024/02/09 12:18:15;;;;;;;15.10;10.20;;;;;;;0.04;77.14;98241.75;107206;1256;67540;-40
2024/02/09 12:20:43;;;;;;;16.00;10.10;;;;;;;-0.02;77.38;98241.73;107459;1256;71907;-40
2024/02/09 12:23:11;;;;;;;13.70;9.70;;;;;;;0.01;77.52;98243.09;107456;1254;60516;-40
2024/02/09 12:25:40;;;;;;;17.00;10.80;;;;;;;0.06;77.36;98248.30;107328;1253;60221;-40
2024/02/09 12:28:10;;;;;;;14.30;10.10;;;;;;;0.02;77.41;98258.17;107489;1254;73988;-40
2024/02/09 12:30:42;;;;;;;17.80;10.10;;;;;;;-0.03;77.43;98260.89;107479;1253;68937;-40
2024/02/09 12:33:11;;;;;;;13.60;10.10;;;;;;;-0.00;77.77;98258.95;107495;1257;72699;-39
2024/02/09 12:35:41;;;;;;;14.50;10.20;;;;;;;0.09;77.46;98262.75;107470;1253;60469;-39
2024/02/09 12:38:09;;;;;;;18.70;11.20;;;;;;;0.11;77.85;98259.89;107556;1254;59681;-40
2024/02/09 12:40:43;;;;;;;;;;;;;;;0.11;77.45;98258.13;107500;1253;73987;-39
2024/02/09 12:43:19;;;;;;;18.20;10.40;;;;;;;0.07;77.16;98262.59;107390;1254;68524;-40
2024/02/09 12:45:47;;;;;;;18.60;11.10;;;;;;;0.07;77.39;98256.80;107314;1254;71413;-40
2024/02/09 12:48:20;;;;;;;17.30;11.00;;;;;;;0.06;77.48;98256.51;107359;1254;59257;-40
2024/02/09 12:50:55;;;;;;;18.60;11.60;;;;;;;0.01;77.59;98250.86;107460;1254;60597;-40
2024/02/09 12:53:26;;;;;;;16.40;11.20;;;;;;;-0.00;77.81;98246.69;107354;1253;73933;-39
2024/02/09 12:55:55;;;;;;;19.30;11.50;;;;;;;0.06;77.82;98241.25;107374;1254;68829;-39
2024/02/09 12:58:23;;;;;;;15.70;11.60;;;;;;;0.09;77.51;98238.40;107453;1258;72488;-39
2024/02/09 13:00:55;;;;;;;16.50;11.40;;;;;;;0.03;77.53;98229.16;107393;1256;60434;-38
2024/02/09 13:03:28;;;;;;;16.90;10.90;;;;;;;-0.02;77.45;98232.90;107356;1254;60543;-39
2024/02/09 13:05:56;;;;;;;17.50;11.30;;;;;;;-0.02;77.56;98237.41;107397;1254;73917;-39
2024/02/09 13:08:24;;;;;;;14.10;10.40;;;;;;;-0.01;77.48;98231.80;107511;1254;68632;-39
2024/02/09 13:10:51;;;;;;;18.20;12.70;;;;;;;-0.06;77.91;98236.02;107502;1257;74994;-38
2024/02/09 13:13:19;;;;;;;16.50;11.60;;;;;;;-0.12;78.03;98232.17;106696;1256;1002995;-39
2024/02/09 13:15:47;;;;;;;17.00;11.00;;;;;;;-0.12;77.84;98238.88;107488;1254;60326;-39
2024/02/09 13:18:15;;;;;;;18.90;12.20;;;;;;;-0.07;77.80;98241.06;107497;1254;75945;-40
2024/02/09 13:20:45;;;;;;;19.80;13.00;;;;;;;-0.06;78.20;98245.83;107495;1254;66481;-39